createdAt,value
2023-01-20T00:03:15.364Z,18.80
2023-01-20T00:08:17.615Z,19.10
2023-01-20T00:13:19.910Z,18.87
2023-01-20T00:18:22.106Z,17.53
2023-01-20T00:23:24.339Z,21.57
2023-01-20T00:28:26.587Z,16.77
2023-01-20T00:33:30.211Z,18.87
2023-01-20T00:38:32.386Z,18.20
2023-01-20T00:43:35.020Z,20.27
2023-01-20T00:48:37.997Z,18.80
2023-01-20T00:53:40.333Z,16.23
2023-01-20T00:58:45.707Z,17.27
2023-01-20T01:03:48.408Z,17.13
2023-01-20T01:08:50.718Z,16.73
2023-01-20T01:13:55.342Z,18.07
2023-01-20T01:18:57.637Z,17.73
2023-01-20T01:23:59.955Z,18.00
2023-01-20T01:29:02.330Z,18.33
2023-01-20T01:34:04.618Z,16.93
2023-01-20T01:39:06.893Z,16.57
2023-01-20T01:44:12.090Z,15.13
2023-01-20T01:49:21.403Z,15.57
2023-01-20T01:54:27.296Z,15.88
2023-01-20T01:59:29.966Z,16.63
2023-01-20T02:04:34.109Z,16.83
2023-01-20T02:09:36.431Z,15.50
2023-01-20T02:14:41.817Z,15.53
2023-01-20T02:20:02.105Z,14.97
2023-01-20T02:25:37.052Z,16.37
2023-01-20T02:31:01.101Z,14.87
2023-01-20T02:36:11.706Z,17.13
2023-01-20T02:41:16.903Z,13.73
2023-01-20T02:46:27.132Z,14.97
2023-01-20T02:51:34.925Z,13.13
2023-01-20T02:56:37.348Z,13.33
2023-01-20T03:01:50.683Z,14.17
2023-01-20T03:06:55.108Z,12.87
2023-01-20T03:12:02.515Z,13.50
2023-01-20T03:17:04.818Z,13.13
2023-01-20T03:22:07.305Z,13.33
2023-01-20T03:27:11.118Z,14.70
2023-01-20T03:32:13.934Z,13.57
2023-01-20T03:37:16.676Z,12.87
2023-01-20T03:42:29.653Z,14.10
2023-01-20T03:47:45.582Z,15.20
2023-01-20T03:53:12.856Z,13.97
2023-01-20T03:58:37.833Z,12.73
2023-01-20T04:03:44.633Z,13.07
2023-01-20T04:09:00.444Z,13.00
2023-01-20T04:14:02.834Z,13.83
2023-01-20T04:19:05.119Z,14.07
2023-01-20T04:24:13.537Z,13.37
2023-01-20T04:29:15.962Z,12.53
2023-01-20T04:34:18.232Z,13.87
2023-01-20T04:39:20.545Z,14.07
2023-01-20T04:44:22.778Z,10.80
2023-01-20T04:49:25.114Z,13.17
2023-01-20T04:54:27.435Z,11.87
2023-01-20T04:59:29.811Z,14.73
2023-01-20T05:04:32.047Z,12.60
2023-01-20T05:09:34.356Z,13.33
2023-01-20T05:14:36.616Z,11.70
2023-01-20T05:19:41.067Z,12.73
2023-01-20T05:43:01.905Z,12.20
2023-01-20T05:48:04.686Z,12.47
2023-01-20T05:53:06.898Z,11.67
2023-01-20T05:58:09.328Z,12.83
2023-01-20T06:03:11.570Z,11.33
2023-01-20T06:08:13.669Z,12.73
2023-01-20T06:13:15.877Z,12.33
2023-01-20T06:18:18.107Z,11.33
2023-01-20T06:23:23.280Z,12.07
2023-01-20T06:28:25.415Z,13.23
2023-01-20T06:33:42.398Z,10.53
2023-01-20T06:38:50.694Z,11.77
2023-01-20T06:43:52.944Z,12.00
2023-01-20T06:49:00.909Z,12.33
2023-01-20T06:54:03.206Z,12.37
2023-01-20T06:59:05.349Z,12.83
2023-01-20T07:04:08.498Z,11.73
2023-01-20T07:09:12.790Z,11.70
2023-01-20T07:14:15.102Z,11.70
2023-01-20T07:19:17.359Z,13.27
2023-01-20T07:24:19.536Z,12.03
2023-01-20T07:29:21.694Z,13.03
2023-01-20T07:34:24.242Z,11.57
2023-01-20T07:39:26.392Z,13.10
2023-01-20T07:44:28.526Z,13.10
2023-01-20T07:49:33.361Z,13.00
2023-01-20T07:54:35.773Z,12.27
2023-01-20T07:59:37.891Z,11.93
2023-01-20T08:04:40.063Z,12.70
2023-01-20T08:09:44.202Z,13.33
2023-01-20T08:14:46.359Z,13.07
2023-01-20T08:19:48.498Z,13.33
2023-01-20T08:24:50.660Z,12.37
2023-01-20T08:29:56.005Z,13.13
2023-01-20T08:35:00.794Z,13.90
2023-01-20T08:40:03.162Z,13.60
2023-01-20T08:45:07.293Z,12.07
2023-01-20T08:50:10.467Z,12.90
2023-01-20T08:55:12.925Z,14.93
2023-01-20T09:00:16.133Z,12.00
2023-01-20T09:05:21.551Z,12.23
2023-01-20T09:10:23.885Z,13.57
2023-01-20T09:15:26.189Z,13.43
2023-01-20T09:20:30.436Z,12.67
2023-01-20T09:25:32.551Z,12.60
2023-01-20T09:30:35.013Z,14.17
2023-01-20T09:35:40.685Z,14.37
2023-01-20T09:41:17.060Z,13.40
2023-01-20T09:47:18.138Z,13.73
2023-01-20T09:52:51.547Z,13.95
2023-01-20T09:58:19.478Z,12.63
2023-01-20T10:03:29.705Z,13.27
2023-01-20T10:09:04.979Z,13.17
2023-01-20T10:14:13.240Z,12.17
2023-01-20T10:19:27.389Z,14.83
2023-01-20T10:24:33.311Z,13.20
2023-01-20T10:29:42.262Z,15.33
2023-01-20T10:34:50.455Z,11.15
2023-01-20T10:40:19.438Z,13.70
2023-01-20T10:45:33.936Z,11.90
2023-01-20T10:51:15.124Z,11.43
2023-01-20T10:56:40.807Z,10.83
2023-01-20T11:01:46.181Z,12.07
2023-01-20T11:06:54.083Z,11.73
2023-01-20T11:11:57.142Z,12.00
2023-01-20T11:17:13.913Z,11.23
2023-01-20T11:22:21.532Z,12.37
2023-01-20T11:27:26.936Z,11.40
2023-01-20T11:32:33.448Z,11.50
2023-01-20T11:37:38.295Z,11.50
2023-01-20T11:42:46.166Z,10.60
2023-01-20T11:48:01.041Z,11.90
2023-01-20T11:53:19.793Z,12.53
2023-01-20T11:58:27.335Z,10.93
2023-01-20T12:03:56.579Z,12.00
2023-01-20T12:09:11.527Z,10.83
2023-01-20T12:14:26.559Z,10.47
2023-01-20T12:19:53.696Z,10.60
2023-01-20T12:25:08.525Z,11.57
2023-01-20T12:30:41.801Z,11.40
2023-01-20T12:35:54.453Z,11.17
2023-01-20T12:41:01.402Z,10.83
2023-01-20T12:46:22.644Z,12.17
2023-01-20T12:51:33.970Z,12.30
2023-01-20T12:56:49.100Z,10.63
2023-01-20T13:01:57.426Z,10.60
2023-01-20T13:07:57.360Z,9.53
2023-01-20T13:13:11.403Z,10.83
2023-01-20T13:18:16.634Z,10.37
2023-01-20T13:23:34.287Z,11.03
2023-01-20T13:28:36.561Z,11.23
2023-01-20T13:33:42.659Z,10.27
2023-01-20T13:38:46.316Z,10.03
2023-01-20T13:43:49.781Z,10.90
2023-01-20T13:49:13.894Z,10.67
2023-01-20T13:54:43.276Z,9.83
2023-01-20T13:59:45.633Z,9.47
2023-01-20T14:04:48.115Z,9.07
2023-01-20T14:09:56.343Z,10.60
2023-01-20T14:14:58.721Z,9.67
2023-01-20T14:20:00.945Z,10.03
2023-01-20T14:25:03.804Z,9.93
2023-01-20T14:30:27.676Z,9.40
2023-01-20T14:35:31.469Z,9.33
2023-01-20T14:40:35.571Z,9.40
2023-01-20T14:45:38.008Z,10.60
2023-01-20T14:50:41.181Z,9.13
2023-01-20T14:56:00.270Z,8.80
2023-01-20T15:01:06.668Z,9.53
2023-01-20T15:06:12.420Z,8.57
2023-01-20T15:11:14.835Z,10.23
2023-01-20T15:16:19.174Z,9.17
2023-01-20T15:21:28.286Z,8.97
2023-01-20T15:26:31.144Z,8.20
2023-01-20T15:31:36.381Z,9.60
2023-01-20T15:36:40.359Z,9.83
2023-01-20T15:41:42.876Z,7.83
2023-01-20T15:46:45.085Z,8.63
2023-01-20T15:51:47.331Z,10.20
2023-01-20T15:56:49.667Z,7.27
2023-01-20T16:01:53.784Z,9.50
2023-01-20T16:06:56.189Z,9.47
2023-01-20T16:11:58.551Z,7.57
2023-01-20T16:17:00.963Z,7.90
2023-01-20T16:22:03.347Z,8.80
2023-01-20T16:27:15.305Z,8.13
2023-01-20T16:32:22.090Z,7.70
2023-01-20T16:37:24.856Z,7.73
2023-01-20T16:42:29.733Z,7.83
2023-01-20T16:47:32.719Z,7.63
2023-01-20T16:52:35.554Z,8.03
2023-01-20T16:57:37.935Z,7.27
2023-01-20T17:02:40.426Z,8.23
2023-01-20T17:07:42.743Z,7.60
2023-01-20T17:12:49.063Z,8.07
2023-01-20T17:17:58.323Z,9.87
2023-01-20T17:23:00.977Z,8.57
2023-01-20T17:28:03.277Z,8.87
2023-01-20T17:33:05.601Z,9.07
2023-01-20T17:38:07.826Z,8.47
2023-01-20T17:43:10.207Z,8.13
2023-01-20T17:48:12.907Z,8.43
2023-01-20T17:53:15.152Z,8.77
2023-01-20T17:58:17.500Z,8.00
2023-01-20T18:03:19.774Z,8.43
2023-01-20T18:08:26.513Z,10.23
2023-01-20T18:13:31.005Z,8.70
2023-01-20T18:18:35.465Z,8.90
2023-01-20T18:23:39.221Z,9.03
2023-01-20T18:28:42.948Z,9.80
2023-01-20T18:33:47.905Z,8.73
2023-01-20T18:38:55.551Z,9.50
2023-01-20T18:43:58.048Z,10.27
2023-01-20T18:49:00.848Z,9.80
2023-01-20T18:54:06.099Z,10.10
2023-01-20T18:59:08.686Z,9.33
2023-01-20T19:04:12.730Z,10.10
2023-01-20T19:09:16.411Z,9.80
2023-01-20T19:14:18.655Z,10.53
2023-01-20T19:19:23.978Z,10.47
2023-01-20T19:24:29.212Z,8.50
2023-01-20T19:29:32.677Z,9.93
2023-01-20T19:34:35.605Z,10.00
2023-01-20T19:39:37.852Z,9.13
2023-01-20T19:44:40.119Z,9.67
2023-01-20T19:49:42.789Z,9.40
2023-01-20T19:54:44.931Z,10.30
2023-01-20T19:59:47.099Z,10.87
2023-01-20T20:04:49.269Z,10.87
2023-01-20T20:09:51.856Z,9.30
2023-01-20T20:14:55.266Z,9.40
2023-01-20T20:19:57.534Z,9.17
2023-01-20T20:24:59.768Z,9.70
2023-01-20T20:30:03.426Z,9.33
2023-01-20T20:35:06.477Z,9.60
2023-01-20T20:40:09.721Z,10.83
2023-01-20T20:45:12.241Z,10.57
2023-01-20T20:50:14.725Z,10.30
2023-01-20T20:55:17.325Z,9.30
2023-01-20T21:00:23.660Z,9.63
2023-01-20T21:05:25.968Z,9.77
2023-01-20T21:10:28.439Z,11.07
2023-01-20T21:15:31.141Z,9.87
2023-01-20T21:20:33.842Z,9.63
2023-01-20T21:25:36.038Z,10.33
2023-01-20T21:30:38.242Z,10.50
2023-01-20T21:35:40.469Z,9.87
2023-01-20T21:41:02.610Z,9.33
2023-01-20T21:46:05.174Z,10.37
2023-01-20T21:51:31.726Z,10.63
2023-01-20T21:57:11.131Z,10.23
2023-01-20T22:02:14.330Z,12.37
2023-01-20T22:07:17.657Z,9.97
2023-01-20T22:12:19.863Z,10.07
2023-01-20T22:17:22.010Z,10.33
2023-01-20T22:22:24.205Z,9.20
2023-01-20T22:27:26.354Z,9.93
2023-01-20T22:32:28.483Z,10.43
2023-01-20T22:37:31.777Z,10.77
2023-01-20T22:42:34.469Z,11.30
2023-01-20T22:47:37.772Z,11.53
2023-01-20T22:52:40.397Z,10.23
2023-01-20T22:57:42.724Z,11.63
2023-01-20T23:02:44.965Z,11.10
2023-01-20T23:07:47.144Z,11.03
2023-01-20T23:12:51.809Z,11.10
2023-01-20T23:17:54.063Z,10.03
2023-01-20T23:22:56.752Z,10.37
2023-01-20T23:27:59.007Z,10.73
2023-01-20T23:33:01.185Z,9.57
2023-01-20T23:38:03.345Z,10.53
2023-01-20T23:43:05.507Z,9.87
2023-01-20T23:48:07.624Z,11.10
2023-01-20T23:53:09.976Z,9.70
2023-01-20T23:58:12.373Z,9.10
